< < Back
Terminal Aerodrome Forecast


Current Version              Previous Versions:   1  2  3  4  5  6  7  8  9  

Terminal Aerodrome Forecast

972
FTUS42 KTAE 180500
TAFTLH
TAF
KTLH 180520Z 1806/1906 30003KT P6SM SCT110
     FM181400 33005KT P6SM SKC
     FM181900 28007KT P6SM SCT060
     FM190200 00000KT P6SM SCT250=

Latest METAR

835
SAUS80 KWBC 190700 RRA
MTRTLH
METAR KTLH 190653Z AUTO 00000KT 10SM CLR 22/21 A2994 RMK AO2 SLP138
T02220206 $


USA.gov is the U.S. government's official web portal to all federal, state and local government web resources and services.